createdAt,value
2023-01-30T00:01:12.869Z,9.88
2023-01-30T00:03:39.646Z,9.95
2023-01-30T00:06:06.767Z,8.80
2023-01-30T00:08:33.600Z,9.55
2023-01-30T00:11:05.417Z,8.15
2023-01-30T00:13:32.276Z,8.48
2023-01-30T00:15:59.144Z,9.23
2023-01-30T00:18:26.188Z,8.50
2023-01-30T00:21:00.690Z,8.70
2023-01-30T00:23:29.622Z,8.68
2023-01-30T00:25:56.929Z,8.45
2023-01-30T00:28:24.641Z,8.25
2023-01-30T00:30:53.043Z,8.05
2023-01-30T00:33:21.364Z,7.50
2023-01-30T00:35:49.924Z,9.70
2023-01-30T00:38:17.048Z,8.60
2023-01-30T00:40:44.388Z,7.80
2023-01-30T00:43:31.966Z,8.95
2023-01-30T00:46:17.769Z,8.18
2023-01-30T00:48:44.772Z,9.35
2023-01-30T00:51:11.723Z,8.43
2023-01-30T00:53:38.524Z,9.23
2023-01-30T00:56:05.959Z,7.90
2023-01-30T00:58:33.851Z,9.30
2023-01-30T01:01:00.629Z,9.65
2023-01-30T01:03:27.607Z,9.80
2023-01-30T01:05:54.459Z,9.75
2023-01-30T01:08:22.711Z,10.07
2023-01-30T01:10:49.583Z,9.88
2023-01-30T01:13:16.464Z,9.35
2023-01-30T01:15:43.299Z,10.00
2023-01-30T01:18:10.088Z,9.27
2023-01-30T01:20:36.915Z,10.60
2023-01-30T01:23:03.793Z,9.57
2023-01-30T01:25:30.604Z,9.80
2023-01-30T01:27:57.621Z,9.63
2023-01-30T01:30:24.485Z,10.30
2023-01-30T01:32:51.372Z,9.32
2023-01-30T01:35:20.102Z,9.82
2023-01-30T01:37:47.254Z,10.63
2023-01-30T01:40:37.493Z,11.98
2023-01-30T01:43:19.247Z,9.77
2023-01-30T01:45:48.649Z,10.02
2023-01-30T01:48:41.733Z,10.10
2023-01-30T01:51:33.178Z,10.10
2023-01-30T01:54:08.546Z,11.00
2023-01-30T01:56:38.253Z,9.88
2023-01-30T01:59:19.503Z,10.38
2023-01-30T02:01:47.347Z,10.45
2023-01-30T02:04:14.482Z,9.75
2023-01-30T02:06:43.036Z,10.70
2023-01-30T02:09:11.051Z,10.65
2023-01-30T02:11:46.600Z,10.45
2023-01-30T02:14:14.837Z,10.18
2023-01-30T02:16:43.589Z,9.50
2023-01-30T02:19:34.691Z,10.23
2023-01-30T02:22:04.291Z,9.32
2023-01-30T02:25:00.978Z,10.20
2023-01-30T02:27:52.448Z,9.70
2023-01-30T02:30:52.836Z,10.02
2023-01-30T02:33:25.816Z,9.68
2023-01-30T02:39:04.374Z,9.20
2023-01-30T02:41:44.823Z,9.10
2023-01-30T02:44:24.151Z,9.30
2023-01-30T02:46:50.931Z,8.10
2023-01-30T02:49:24.054Z,8.40
2023-01-30T02:51:52.523Z,8.15
2023-01-30T02:54:19.340Z,7.45
2023-01-30T02:56:49.960Z,7.57
2023-01-30T02:59:39.971Z,7.63
2023-01-30T03:02:25.613Z,8.10
2023-01-30T03:05:17.303Z,6.55
2023-01-30T03:08:20.127Z,8.23
2023-01-30T03:10:59.900Z,8.03
2023-01-30T03:13:41.574Z,7.60
2023-01-30T03:16:18.593Z,7.32
2023-01-30T03:18:46.341Z,7.35
2023-01-30T03:21:13.355Z,8.07
2023-01-30T03:23:40.214Z,7.40
2023-01-30T03:26:13.216Z,7.22
2023-01-30T03:28:40.649Z,7.28
2023-01-30T03:31:07.564Z,8.52
2023-01-30T03:33:34.346Z,6.85
2023-01-30T03:36:01.329Z,8.05
2023-01-30T03:38:28.153Z,6.75
2023-01-30T03:40:55.112Z,7.63
2023-01-30T03:43:22.078Z,6.88
2023-01-30T03:45:49.047Z,6.63
2023-01-30T03:48:15.875Z,7.53
2023-01-30T03:50:42.969Z,6.30
2023-01-30T03:53:09.841Z,6.72
2023-01-30T03:55:36.973Z,6.18
2023-01-30T03:58:03.849Z,6.20
2023-01-30T04:00:30.977Z,5.78
2023-01-30T04:02:58.930Z,6.18
2023-01-30T04:05:25.875Z,6.00
2023-01-30T04:07:56.750Z,6.63
2023-01-30T04:10:24.018Z,6.68
2023-01-30T04:12:50.792Z,6.20
2023-01-30T04:15:18.353Z,5.72
2023-01-30T04:17:45.475Z,6.35
2023-01-30T04:20:15.819Z,5.85
2023-01-30T04:22:42.650Z,5.25
2023-01-30T04:25:09.758Z,5.53
2023-01-30T04:27:36.735Z,5.47
2023-01-30T04:30:04.634Z,4.38
2023-01-30T04:32:31.508Z,5.13
2023-01-30T04:34:58.314Z,5.28
2023-01-30T04:37:25.183Z,5.18
2023-01-30T04:39:52.053Z,5.72
2023-01-30T04:42:18.879Z,5.82
2023-01-30T04:44:46.273Z,5.38
2023-01-30T04:47:13.132Z,5.57
2023-01-30T04:49:39.993Z,5.97
2023-01-30T04:52:06.863Z,5.22
2023-01-30T04:54:33.728Z,5.30
2023-01-30T04:57:00.654Z,5.05
2023-01-30T04:59:27.470Z,6.45
2023-01-30T05:01:55.339Z,5.38
2023-01-30T05:04:22.202Z,4.95
2023-01-30T05:06:49.252Z,5.30
2023-01-30T05:09:16.203Z,5.30
2023-01-30T05:11:43.133Z,6.20
2023-01-30T05:14:10.354Z,5.55
2023-01-30T05:16:37.224Z,5.05
2023-01-30T05:19:04.721Z,4.82
2023-01-30T05:21:31.632Z,5.10
2023-01-30T05:23:58.507Z,5.45
2023-01-30T05:26:25.817Z,6.10
2023-01-30T05:28:57.372Z,5.65
2023-01-30T05:31:24.643Z,5.60
2023-01-30T05:33:52.517Z,5.90
2023-01-30T05:36:21.497Z,6.32
2023-01-30T05:38:48.548Z,5.88
2023-01-30T05:41:16.437Z,6.38
2023-01-30T05:43:43.479Z,7.25
2023-01-30T05:46:12.326Z,6.55
2023-01-30T05:48:39.431Z,7.75
2023-01-30T05:51:06.673Z,7.53
2023-01-30T05:53:35.470Z,7.13
2023-01-30T05:56:05.467Z,8.10
2023-01-30T05:58:33.319Z,8.35
2023-01-30T06:01:09.811Z,8.38
2023-01-30T06:03:37.040Z,7.80
2023-01-30T06:06:05.194Z,8.43
2023-01-30T06:08:33.160Z,8.23
2023-01-30T06:11:01.726Z,8.80
2023-01-30T06:13:28.564Z,8.18
2023-01-30T06:15:55.489Z,7.80
2023-01-30T06:18:22.298Z,7.57
2023-01-30T06:20:53.245Z,7.40
2023-01-30T06:23:21.356Z,7.38
2023-01-30T06:25:49.460Z,7.28
2023-01-30T06:28:17.276Z,7.10
2023-01-30T06:30:44.094Z,7.50
2023-01-30T06:33:10.914Z,6.07
2023-01-30T06:35:38.919Z,6.75
2023-01-30T06:38:06.508Z,6.57
2023-01-30T06:40:33.401Z,5.38
2023-01-30T06:43:00.179Z,4.60
2023-01-30T06:45:26.924Z,4.32
2023-01-30T06:47:55.522Z,4.28
2023-01-30T06:50:24.573Z,4.00
2023-01-30T06:52:52.694Z,4.60
2023-01-30T06:55:22.554Z,3.30
2023-01-30T06:57:49.692Z,3.97
2023-01-30T07:00:19.558Z,3.78
2023-01-30T07:02:47.343Z,3.67
2023-01-30T07:05:14.256Z,2.97
2023-01-30T07:10:23.334Z,1.83
2023-01-30T07:15:36.999Z,1.98
2023-01-30T07:18:03.984Z,2.05
2023-01-30T07:20:31.348Z,1.73
2023-01-30T07:22:58.310Z,1.83
2023-01-30T07:25:26.793Z,1.73
2023-01-30T07:27:55.446Z,1.92
2023-01-30T07:30:22.434Z,2.03
2023-01-30T07:32:55.115Z,1.92
2023-01-30T07:35:23.644Z,1.98
2023-01-30T07:37:51.178Z,1.90
2023-01-30T07:40:20.936Z,1.55
2023-01-30T07:43:04.695Z,1.33
2023-01-30T07:45:48.372Z,1.80
2023-01-30T07:48:17.506Z,1.67
2023-01-30T07:50:45.331Z,1.27
2023-01-30T07:53:14.892Z,1.00
2023-01-30T07:55:42.499Z,1.42
2023-01-30T07:58:14.265Z,1.30
2023-01-30T08:00:41.133Z,0.90
2023-01-30T08:03:15.264Z,1.40
2023-01-30T08:05:42.135Z,1.25
2023-01-30T08:08:08.866Z,1.13
2023-01-30T08:10:35.682Z,1.38
2023-01-30T08:13:02.756Z,1.50
2023-01-30T08:15:31.627Z,1.60
2023-01-30T08:17:58.523Z,2.13
2023-01-30T08:20:27.203Z,2.40
2023-01-30T08:22:54.950Z,1.80
2023-01-30T08:25:22.270Z,1.90
2023-01-30T08:27:49.282Z,1.73
2023-01-30T08:30:16.622Z,1.95
2023-01-30T08:32:43.762Z,2.30
2023-01-30T08:35:11.307Z,2.42
2023-01-30T08:37:40.463Z,3.00
2023-01-30T08:40:08.961Z,3.13
2023-01-30T08:42:35.944Z,2.88
2023-01-30T08:45:03.093Z,3.30
2023-01-30T08:47:30.636Z,4.40
2023-01-30T08:49:57.555Z,3.88
2023-01-30T08:52:24.298Z,4.38
2023-01-30T08:54:51.064Z,4.43
2023-01-30T08:57:17.857Z,6.00
2023-01-30T08:59:44.643Z,5.40
2023-01-30T09:02:13.022Z,5.30
2023-01-30T09:04:39.894Z,5.93
2023-01-30T09:07:06.779Z,5.50
2023-01-30T09:09:33.592Z,6.63
2023-01-30T09:12:00.386Z,6.20
2023-01-30T09:14:27.420Z,6.95
2023-01-30T09:16:57.140Z,6.60
2023-01-30T09:19:26.225Z,6.88
2023-01-30T09:21:53.493Z,6.68
2023-01-30T09:24:22.126Z,6.40
2023-01-30T09:26:49.024Z,6.70
2023-01-30T09:29:15.993Z,6.10
2023-01-30T09:31:42.859Z,6.53
2023-01-30T09:34:09.885Z,5.57
2023-01-30T09:36:36.706Z,5.00
2023-01-30T09:39:04.074Z,5.72
2023-01-30T09:41:54.717Z,5.95
2023-01-30T09:44:43.472Z,5.10
2023-01-30T09:47:13.123Z,4.60
2023-01-30T09:49:48.833Z,5.57
2023-01-30T09:52:40.210Z,6.00
2023-01-30T09:55:22.339Z,5.80
2023-01-30T09:57:50.579Z,6.20
2023-01-30T10:00:35.898Z,5.53
2023-01-30T10:03:05.434Z,6.22
2023-01-30T10:05:49.224Z,6.50
2023-01-30T10:08:31.054Z,6.00
2023-01-30T10:11:09.994Z,4.68
2023-01-30T10:14:04.935Z,4.60
2023-01-30T10:17:01.345Z,4.80
2023-01-30T10:19:50.757Z,5.43
2023-01-30T10:22:45.747Z,6.00
2023-01-30T10:25:32.912Z,5.88
2023-01-30T10:28:22.941Z,4.78
2023-01-30T10:30:53.460Z,5.35
2023-01-30T10:33:40.604Z,5.07
2023-01-30T10:36:16.086Z,5.30
2023-01-30T10:38:51.921Z,4.63
2023-01-30T10:41:26.888Z,3.60
2023-01-30T10:44:14.814Z,3.45
2023-01-30T10:46:56.687Z,3.70
2023-01-30T10:49:44.023Z,3.60
2023-01-30T10:52:38.480Z,2.80
2023-01-30T10:55:36.453Z,3.30
2023-01-30T10:58:30.285Z,3.20
2023-01-30T11:01:05.725Z,2.63
2023-01-30T11:03:35.269Z,3.17
2023-01-30T11:06:05.440Z,4.18
2023-01-30T11:08:34.605Z,2.67
2023-01-30T11:11:20.491Z,4.22
2023-01-30T11:13:47.251Z,3.67
2023-01-30T11:16:14.491Z,3.10
2023-01-30T11:21:43.578Z,3.53
2023-01-30T11:24:23.318Z,3.22
2023-01-30T11:26:52.343Z,3.03
2023-01-30T11:29:39.579Z,3.13
2023-01-30T11:32:26.182Z,3.03
2023-01-30T11:35:04.552Z,3.38
2023-01-30T11:37:34.678Z,2.60
2023-01-30T11:40:30.948Z,3.22
2023-01-30T11:43:12.949Z,2.70
2023-01-30T11:45:42.610Z,3.45
2023-01-30T11:48:31.670Z,3.67
2023-01-30T11:51:09.414Z,3.05
2023-01-30T11:53:49.286Z,2.97
2023-01-30T11:56:26.911Z,3.55
2023-01-30T11:59:23.398Z,2.80
2023-01-30T12:01:50.594Z,3.33
2023-01-30T12:04:18.518Z,4.07
2023-01-30T12:06:45.235Z,2.90
2023-01-30T12:09:44.632Z,3.33
2023-01-30T12:12:30.062Z,3.42
2023-01-30T12:15:28.354Z,3.03
2023-01-30T12:18:13.960Z,2.88
2023-01-30T12:20:55.594Z,3.60
2023-01-30T12:23:42.387Z,3.65
2023-01-30T12:26:09.089Z,3.30
2023-01-30T12:28:54.215Z,3.58
2023-01-30T12:32:11.485Z,3.45
2023-01-30T12:37:44.711Z,3.63
2023-01-30T12:40:37.776Z,2.35
2023-01-30T12:43:46.212Z,3.35
2023-01-30T12:46:29.914Z,3.58
2023-01-30T12:49:12.238Z,3.60
2023-01-30T12:52:26.910Z,3.85
2023-01-30T12:55:16.854Z,3.00
2023-01-30T12:58:03.075Z,3.53
2023-01-30T13:01:05.089Z,3.10
2023-01-30T13:03:42.168Z,3.42
2023-01-30T13:06:39.723Z,3.38
2023-01-30T13:09:24.377Z,2.83
2023-01-30T13:12:14.187Z,4.43
2023-01-30T13:14:52.056Z,3.47
2023-01-30T13:17:36.960Z,2.58
2023-01-30T13:20:12.856Z,4.30
2023-01-30T13:22:39.623Z,3.65
2023-01-30T13:25:21.594Z,3.67
2023-01-30T13:28:00.252Z,2.92
2023-01-30T13:30:29.536Z,3.78
2023-01-30T13:33:00.912Z,3.55
2023-01-30T13:35:35.293Z,3.30
2023-01-30T13:38:04.517Z,3.85
2023-01-30T13:40:39.720Z,4.05
2023-01-30T13:43:15.437Z,3.33
2023-01-30T13:45:46.211Z,3.53
2023-01-30T13:48:19.120Z,3.45
2023-01-30T13:53:23.885Z,2.92
2023-01-30T13:56:16.285Z,3.40
2023-01-30T13:59:09.998Z,2.85
2023-01-30T14:02:08.428Z,4.60
2023-01-30T14:04:41.342Z,3.22
2023-01-30T14:07:39.743Z,2.85
2023-01-30T14:10:09.594Z,3.53
2023-01-30T14:12:41.310Z,2.88
2023-01-30T14:15:13.783Z,3.92
2023-01-30T14:18:02.325Z,3.05
2023-01-30T14:20:50.808Z,3.40
2023-01-30T14:23:33.832Z,3.08
2023-01-30T14:26:01.185Z,3.58
2023-01-30T14:28:30.937Z,4.22
2023-01-30T14:30:59.895Z,3.17
2023-01-30T14:33:26.674Z,4.30
2023-01-30T14:36:02.606Z,3.78
2023-01-30T14:38:34.376Z,4.20
2023-01-30T14:41:01.152Z,3.03
2023-01-30T14:43:38.848Z,3.70
2023-01-30T14:46:11.919Z,4.25
2023-01-30T14:48:44.736Z,3.58
2023-01-30T14:54:00.569Z,3.22
2023-01-30T14:56:46.064Z,4.10
2023-01-30T14:59:15.883Z,3.08
2023-01-30T15:02:15.050Z,3.78
2023-01-30T15:05:03.577Z,2.97
2023-01-30T15:07:41.405Z,3.30
2023-01-30T15:10:11.332Z,3.75
2023-01-30T15:12:53.317Z,4.38
2023-01-30T15:15:23.091Z,3.83
2023-01-30T15:18:20.801Z,4.13
2023-01-30T15:21:07.869Z,4.45
2023-01-30T15:24:02.573Z,6.13
2023-01-30T15:26:35.422Z,4.20
2023-01-30T15:29:22.437Z,5.10
2023-01-30T15:31:57.648Z,3.75
2023-01-30T15:34:31.616Z,3.65
2023-01-30T15:36:58.603Z,3.38
2023-01-30T15:39:29.278Z,3.50
2023-01-30T15:42:05.468Z,3.83
2023-01-30T15:44:49.791Z,3.53
2023-01-30T15:47:51.825Z,3.75
2023-01-30T15:50:18.928Z,3.00
2023-01-30T15:52:49.428Z,4.03
2023-01-30T15:55:22.678Z,4.78
2023-01-30T15:57:54.152Z,4.22
2023-01-30T16:00:30.811Z,3.65
2023-01-30T16:03:00.838Z,3.70
2023-01-30T16:05:29.019Z,4.70
2023-01-30T16:07:57.306Z,3.60
2023-01-30T16:10:26.951Z,3.65
2023-01-30T16:12:56.317Z,4.35
2023-01-30T16:15:44.923Z,3.55
2023-01-30T16:18:33.257Z,3.38
2023-01-30T16:21:18.389Z,4.20
2023-01-30T16:24:03.395Z,3.95
2023-01-30T16:26:31.920Z,4.68
2023-01-30T16:29:06.066Z,3.55
2023-01-30T16:31:39.881Z,3.50
2023-01-30T16:34:22.104Z,3.97
2023-01-30T16:36:48.955Z,3.47
2023-01-30T16:39:37.856Z,3.20
2023-01-30T16:42:23.102Z,3.67
2023-01-30T16:44:49.842Z,4.28
2023-01-30T16:47:27.850Z,4.40
2023-01-30T16:49:56.179Z,3.95
2023-01-30T16:52:27.708Z,3.63
2023-01-30T16:54:57.818Z,4.05
2023-01-30T16:57:36.394Z,4.75
2023-01-30T17:00:23.789Z,5.03
2023-01-30T17:03:04.066Z,4.45
2023-01-30T17:05:39.546Z,4.97
2023-01-30T17:08:06.499Z,4.55
2023-01-30T17:10:42.316Z,4.68
2023-01-30T17:13:41.917Z,5.25
2023-01-30T17:16:30.573Z,5.25
2023-01-30T17:18:58.332Z,4.72
2023-01-30T17:21:42.268Z,4.32
2023-01-30T17:24:14.982Z,5.18
2023-01-30T17:26:42.212Z,4.78
2023-01-30T17:29:23.697Z,4.10
2023-01-30T17:32:01.322Z,4.72
2023-01-30T17:34:28.961Z,4.82
2023-01-30T17:36:56.241Z,3.72
2023-01-30T17:39:26.783Z,4.15
2023-01-30T17:41:53.673Z,4.95
2023-01-30T17:44:20.456Z,3.95
2023-01-30T17:46:49.043Z,4.85
2023-01-30T17:49:23.997Z,4.03
2023-01-30T17:51:52.143Z,4.63
2023-01-30T17:54:20.558Z,5.32
2023-01-30T17:56:52.076Z,4.07
2023-01-30T17:59:21.316Z,4.43
2023-01-30T18:01:50.509Z,3.88
2023-01-30T18:04:19.203Z,3.90
2023-01-30T18:06:49.999Z,3.90
2023-01-30T18:09:19.841Z,3.95
2023-01-30T18:11:48.414Z,4.05
2023-01-30T18:14:15.796Z,4.82
2023-01-30T18:16:43.363Z,4.32
2023-01-30T18:19:14.088Z,3.72
2023-01-30T18:21:44.955Z,4.20
2023-01-30T18:24:13.257Z,4.28
2023-01-30T18:26:40.503Z,3.28
2023-01-30T18:29:09.616Z,3.75
2023-01-30T18:31:37.316Z,4.03
2023-01-30T18:34:04.225Z,5.35
2023-01-30T18:36:34.371Z,5.18
2023-01-30T18:39:01.427Z,4.00
2023-01-30T18:41:30.257Z,5.85
2023-01-30T18:43:59.768Z,4.25
2023-01-30T18:46:27.682Z,4.38
2023-01-30T18:48:55.799Z,4.85
2023-01-30T18:51:28.109Z,4.38
2023-01-30T18:53:55.713Z,4.95
2023-01-30T18:56:31.655Z,4.25
2023-01-30T18:59:02.459Z,4.53
2023-01-30T19:01:31.570Z,4.28
2023-01-30T19:04:00.058Z,4.13
2023-01-30T19:06:28.263Z,4.18
2023-01-30T19:08:56.977Z,3.85
2023-01-30T19:11:42.700Z,3.92
2023-01-30T19:14:12.403Z,4.90
2023-01-30T19:16:39.781Z,4.30
2023-01-30T19:19:08.147Z,3.90
2023-01-30T19:21:35.883Z,3.92
2023-01-30T19:24:07.862Z,4.38
2023-01-30T19:26:35.241Z,4.50
2023-01-30T19:29:02.275Z,5.40
2023-01-30T19:31:29.247Z,3.55
2023-01-30T19:34:03.507Z,3.97
2023-01-30T19:36:31.907Z,4.25
2023-01-30T19:38:59.944Z,4.13
2023-01-30T19:41:29.236Z,3.85
2023-01-30T19:43:58.160Z,4.82
2023-01-30T19:46:25.576Z,4.45
2023-01-30T19:48:52.600Z,5.20
2023-01-30T19:51:30.828Z,4.05
2023-01-30T19:54:04.895Z,4.72
2023-01-30T19:56:32.756Z,4.45
2023-01-30T19:59:01.301Z,4.60
2023-01-30T20:01:32.763Z,3.85
2023-01-30T20:04:01.648Z,4.60
2023-01-30T20:06:31.758Z,4.72
2023-01-30T20:09:01.045Z,4.85
2023-01-30T20:11:28.684Z,4.00
2023-01-30T20:13:55.643Z,5.40
2023-01-30T20:16:25.549Z,5.35
2023-01-30T20:19:01.179Z,4.82
2023-01-30T20:21:30.150Z,4.82
2023-01-30T20:23:57.465Z,4.18
2023-01-30T20:26:28.142Z,4.68
2023-01-30T20:28:56.209Z,3.90
2023-01-30T20:31:25.546Z,3.92
2023-01-30T20:33:53.176Z,4.55
2023-01-30T20:36:20.473Z,4.18
2023-01-30T20:38:48.611Z,5.40
2023-01-30T20:41:18.463Z,4.75
2023-01-30T20:43:49.288Z,4.65
2023-01-30T20:46:19.090Z,4.57
2023-01-30T20:48:46.989Z,4.50
2023-01-30T20:51:19.636Z,5.28
2023-01-30T20:53:54.730Z,5.38
2023-01-30T20:56:23.710Z,4.88
2023-01-30T20:58:50.925Z,5.70
2023-01-30T21:01:23.651Z,4.78
2023-01-30T21:03:52.446Z,4.97
2023-01-30T21:06:42.756Z,4.35
2023-01-30T21:09:21.865Z,5.03
2023-01-30T21:11:49.915Z,5.55
2023-01-30T21:14:17.636Z,4.57
2023-01-30T21:16:45.154Z,5.03
2023-01-30T21:19:16.320Z,5.07
2023-01-30T21:21:52.671Z,5.38
2023-01-30T21:24:23.752Z,5.38
2023-01-30T21:26:51.304Z,5.20
2023-01-30T21:29:21.161Z,5.07
2023-01-30T21:31:48.083Z,5.90
2023-01-30T21:34:15.238Z,5.32
2023-01-30T21:36:42.128Z,5.15
2023-01-30T21:39:32.358Z,5.82
2023-01-30T21:42:17.799Z,6.97
2023-01-30T21:44:44.554Z,4.95
2023-01-30T21:47:11.341Z,5.13
2023-01-30T21:49:38.877Z,7.00
2023-01-30T21:52:05.729Z,6.10
2023-01-30T21:54:32.601Z,5.18
2023-01-30T21:56:59.497Z,5.03
2023-01-30T21:59:26.319Z,5.35
2023-01-30T22:01:53.185Z,4.88
2023-01-30T22:04:19.968Z,5.47
2023-01-30T22:06:46.763Z,5.57
2023-01-30T22:09:15.558Z,5.22
2023-01-30T22:11:43.016Z,5.05
2023-01-30T22:14:13.335Z,5.38
2023-01-30T22:16:40.902Z,6.25
2023-01-30T22:19:08.302Z,6.32
2023-01-30T22:21:37.530Z,4.97
2023-01-30T22:24:07.415Z,4.97
2023-01-30T22:26:34.424Z,7.07
2023-01-30T22:29:03.918Z,4.88
2023-01-30T22:31:36.529Z,4.70
2023-01-30T22:34:04.686Z,4.93
2023-01-30T22:36:33.642Z,4.82
2023-01-30T22:39:00.771Z,5.30
2023-01-30T22:41:30.396Z,5.85
2023-01-30T22:43:59.012Z,5.35
2023-01-30T22:46:29.123Z,5.28
2023-01-30T22:48:55.932Z,4.68
2023-01-30T22:51:31.127Z,4.90
2023-01-30T22:54:03.985Z,4.90
2023-01-30T22:56:42.175Z,4.22
2023-01-30T22:59:10.041Z,5.78
2023-01-30T23:01:40.147Z,4.57
2023-01-30T23:04:07.087Z,5.88
2023-01-30T23:06:34.445Z,4.47
2023-01-30T23:09:01.337Z,4.50
2023-01-30T23:11:35.796Z,4.70
2023-01-30T23:14:11.561Z,5.43
2023-01-30T23:16:40.473Z,4.63
2023-01-30T23:19:09.097Z,4.10
2023-01-30T23:21:39.194Z,5.10
2023-01-30T23:24:12.621Z,3.90
2023-01-30T23:26:41.977Z,4.78
2023-01-30T23:29:13.189Z,5.75
2023-01-30T23:31:41.602Z,5.35
2023-01-30T23:34:13.123Z,5.07
2023-01-30T23:36:40.063Z,3.88
2023-01-30T23:39:06.921Z,4.53
2023-01-30T23:41:36.522Z,5.78
2023-01-30T23:44:03.910Z,5.30
2023-01-30T23:46:33.379Z,5.28
2023-01-30T23:49:03.063Z,4.65
2023-01-30T23:51:31.815Z,5.40
2023-01-30T23:53:59.238Z,5.50
2023-01-30T23:56:28.248Z,5.18
2023-01-30T23:58:55.583Z,5.32
